Impacts TAF Board
For situational awareness. Not to be used for flight planning purposes.
IDs:

KHOB - Hobbs Arpt, NM, US

Issued at 1720 UTC 02 Aug 2021
Updated at 2052 UTC 02 Aug 2021
Potential Impact None Slight Moderate High
Time1950Z 02/21Z 02/22Z 02/23Z 03/00Z 03/01Z 03/02Z 03/03Z 03/04Z 03/05Z 03/06Z 03/07Z 03/08Z 03/09Z>>
Type OBS PRVL PRVL PRVL PRVL PRVL PRVL PRVL PRVL PRVL PRVL PRVL PRVL PRVL
VIS 9 >6 >6 >6 >6 >6 >6 >6 >6 >6 >6 >6 >6 >6
CIG -- 70 70 70 70 70 70 -- -- -- -- -- -- --
Cover SCT OVC OVC OVC OVC OVC OVC FEW FEW FEW FEW FEW FEW FEW
FltCat VFR VFR VFR VFR VFR VFR VFR VFR VFR VFR VFR VFR VFR VFR
WX -- -- -- -- -- -- -- -- -- -- -- -- -- --
WDir 40 40 40 40 40 40 40 100 100 100 100 100 100 100
WSpd 9 10 10 10 10 10 10 10 10 10 10 10 10 10
WGst 15 -- -- -- -- -- -- -- -- -- -- -- -- --
Raw TAF
KHOB 021720Z 0218/0318 04010KT P6SM OVC070
  FM030300 10010KT P6SM FEW100 FEW250


Raw METAR
KHOB 021950Z 04009G15KT 9SM SCT041 SCT047 26/15 A3025
KHOB 021850Z 05007G16KT 9SM FEW033 SCT060 OVC070 25/15 A3027
KHOB 021750Z 02011KT 7SM FEW031 SCT045 OVC075 25/15 A3029

METAR Board
Radar Display
Forecast Discussion
For situational awareness. Not to be used for flight planning purposes.